sensor_id;sensor_type;location;lat;lon;timestamp;P1;durP1;ratioP1;P2;durP2;ratioP2
73428;SDS011;61643;49.564;17.412;2023-08-08T00:01:32;1.48;;;1.00;;
73428;SDS011;61643;49.564;17.412;2023-08-08T00:03:58;1.75;;;0.90;;
73428;SDS011;61643;49.564;17.412;2023-08-08T00:06:24;1.58;;;1.00;;
73428;SDS011;61643;49.564;17.412;2023-08-08T00:08:50;2.17;;;0.90;;
73428;SDS011;61643;49.564;17.412;2023-08-08T00:11:16;2.45;;;1.00;;
73428;SDS011;61643;49.564;17.412;2023-08-08T00:13:42;1.48;;;0.90;;
73428;SDS011;61643;49.564;17.412;2023-08-08T00:16:08;1.05;;;0.80;;
73428;SDS011;61643;49.564;17.412;2023-08-08T00:18:34;2.17;;;1.35;;
73428;SDS011;61643;49.564;17.412;2023-08-08T00:21:00;1.88;;;0.90;;
73428;SDS011;61643;49.564;17.412;2023-08-08T00:23:26;1.77;;;1.00;;
73428;SDS011;61643;49.564;17.412;2023-08-08T00:25:52;1.35;;;0.68;;
73428;SDS011;61643;49.564;17.412;2023-08-08T00:28:18;1.95;;;1.20;;
73428;SDS011;61643;49.564;17.412;2023-08-08T00:30:44;1.70;;;0.90;;
73428;SDS011;61643;49.564;17.412;2023-08-08T00:33:10;1.60;;;0.80;;
73428;SDS011;61643;49.564;17.412;2023-08-08T00:35:36;2.20;;;0.90;;
73428;SDS011;61643;49.564;17.412;2023-08-08T00:38:02;3.58;;;0.80;;
73428;SDS011;61643;49.564;17.412;2023-08-08T00:40:28;1.10;;;0.90;;
73428;SDS011;61643;49.564;17.412;2023-08-08T00:42:54;2.10;;;0.93;;
73428;SDS011;61643;49.564;17.412;2023-08-08T00:45:20;1.90;;;1.00;;
73428;SDS011;61643;49.564;17.412;2023-08-08T00:47:46;2.42;;;0.98;;
73428;SDS011;61643;49.564;17.412;2023-08-08T00:50:12;3.22;;;0.88;;
73428;SDS011;61643;49.564;17.412;2023-08-08T00:52:39;2.42;;;1.00;;
73428;SDS011;61643;49.564;17.412;2023-08-08T00:55:07;3.85;;;1.02;;
73428;SDS011;61643;49.564;17.412;2023-08-08T00:57:34;6.28;;;1.00;;
73428;SDS011;61643;49.564;17.412;2023-08-08T01:00:06;4.18;;;1.00;;
73428;SDS011;61643;49.564;17.412;2023-08-08T01:02:34;6.85;;;1.25;;
73428;SDS011;61643;49.564;17.412;2023-08-08T01:05:01;8.30;;;1.20;;
73428;SDS011;61643;49.564;17.412;2023-08-08T01:07:46;6.32;;;1.30;;
73428;SDS011;61643;49.564;17.412;2023-08-08T01:10:29;6.72;;;0.98;;
73428;SDS011;61643;49.564;17.412;2023-08-08T01:13:00;3.65;;;1.15;;
73428;SDS011;61643;49.564;17.412;2023-08-08T01:15:30;5.20;;;1.98;;
73428;SDS011;61643;49.564;17.412;2023-08-08T01:18:09;1.73;;;1.00;;
73428;SDS011;61643;49.564;17.412;2023-08-08T01:20:37;2.42;;;1.10;;
73428;SDS011;61643;49.564;17.412;2023-08-08T01:23:19;2.97;;;0.90;;
73428;SDS011;61643;49.564;17.412;2023-08-08T01:25:51;2.45;;;0.90;;
73428;SDS011;61643;49.564;17.412;2023-08-08T01:28:21;2.08;;;0.80;;
73428;SDS011;61643;49.564;17.412;2023-08-08T01:30:48;2.03;;;1.00;;
73428;SDS011;61643;49.564;17.412;2023-08-08T01:33:14;1.58;;;1.00;;
73428;SDS011;61643;49.564;17.412;2023-08-08T01:35:42;4.72;;;1.15;;
73428;SDS011;61643;49.564;17.412;2023-08-08T01:40:51;5.20;;;1.10;;
73428;SDS011;61643;49.564;17.412;2023-08-08T01:43:18;4.07;;;1.20;;
73428;SDS011;61643;49.564;17.412;2023-08-08T01:45:46;3.78;;;1.20;;
73428;SDS011;61643;49.564;17.412;2023-08-08T01:48:12;1.65;;;1.20;;
73428;SDS011;61643;49.564;17.412;2023-08-08T01:50:38;2.47;;;1.30;;
73428;SDS011;61643;49.564;17.412;2023-08-08T01:53:04;1.30;;;0.98;;
73428;SDS011;61643;49.564;17.412;2023-08-08T01:55:30;5.25;;;1.17;;
73428;SDS011;61643;49.564;17.412;2023-08-08T01:57:57;3.30;;;1.02;;
73428;SDS011;61643;49.564;17.412;2023-08-08T02:00:23;4.15;;;1.17;;
73428;SDS011;61643;49.564;17.412;2023-08-08T02:02:49;1.60;;;1.25;;
73428;SDS011;61643;49.564;17.412;2023-08-08T02:05:15;3.05;;;0.85;;
73428;SDS011;61643;49.564;17.412;2023-08-08T02:07:41;1.85;;;1.02;;
73428;SDS011;61643;49.564;17.412;2023-08-08T02:10:07;1.55;;;1.10;;
73428;SDS011;61643;49.564;17.412;2023-08-08T02:12:33;2.08;;;0.98;;
73428;SDS011;61643;49.564;17.412;2023-08-08T02:14:59;2.83;;;0.90;;
73428;SDS011;61643;49.564;17.412;2023-08-08T02:17:25;2.63;;;0.90;;
73428;SDS011;61643;49.564;17.412;2023-08-08T02:19:52;2.22;;;1.00;;
73428;SDS011;61643;49.564;17.412;2023-08-08T02:22:18;2.35;;;1.20;;
73428;SDS011;61643;49.564;17.412;2023-08-08T02:24:44;3.75;;;1.00;;
73428;SDS011;61643;49.564;17.412;2023-08-08T02:27:11;5.78;;;1.17;;
73428;SDS011;61643;49.564;17.412;2023-08-08T02:29:37;3.00;;;1.08;;
73428;SDS011;61643;49.564;17.412;2023-08-08T02:32:03;1.92;;;1.02;;
73428;SDS011;61643;49.564;17.412;2023-08-08T02:34:30;1.60;;;1.02;;
73428;SDS011;61643;49.564;17.412;2023-08-08T02:36:55;1.95;;;0.82;;
73428;SDS011;61643;49.564;17.412;2023-08-08T02:39:21;1.52;;;0.90;;
73428;SDS011;61643;49.564;17.412;2023-08-08T02:41:47;2.28;;;1.00;;
73428;SDS011;61643;49.564;17.412;2023-08-08T02:44:13;1.30;;;0.93;;
73428;SDS011;61643;49.564;17.412;2023-08-08T02:46:39;3.20;;;1.20;;
73428;SDS011;61643;49.564;17.412;2023-08-08T02:49:05;4.88;;;1.48;;
73428;SDS011;61643;49.564;17.412;2023-08-08T02:51:31;2.60;;;1.00;;
73428;SDS011;61643;49.564;17.412;2023-08-08T02:53:57;1.20;;;0.98;;
73428;SDS011;61643;49.564;17.412;2023-08-08T02:56:23;2.58;;;1.13;;
73428;SDS011;61643;49.564;17.412;2023-08-08T02:58:49;2.35;;;1.52;;
73428;SDS011;61643;49.564;17.412;2023-08-08T03:01:15;1.98;;;1.17;;
73428;SDS011;61643;49.564;17.412;2023-08-08T03:03:41;3.45;;;1.35;;
73428;SDS011;61643;49.564;17.412;2023-08-08T03:06:08;2.38;;;1.33;;
73428;SDS011;61643;49.564;17.412;2023-08-08T03:08:34;1.92;;;1.13;;
73428;SDS011;61643;49.564;17.412;2023-08-08T03:11:00;2.58;;;1.38;;
73428;SDS011;61643;49.564;17.412;2023-08-08T03:13:26;2.55;;;1.35;;
73428;SDS011;61643;49.564;17.412;2023-08-08T03:15:52;1.90;;;1.30;;
73428;SDS011;61643;49.564;17.412;2023-08-08T03:18:18;4.03;;;1.40;;
73428;SDS011;61643;49.564;17.412;2023-08-08T03:20:44;2.78;;;1.42;;
73428;SDS011;61643;49.564;17.412;2023-08-08T03:23:10;2.70;;;1.35;;
73428;SDS011;61643;49.564;17.412;2023-08-08T03:25:36;3.47;;;1.75;;
73428;SDS011;61643;49.564;17.412;2023-08-08T03:28:02;5.32;;;1.40;;
73428;SDS011;61643;49.564;17.412;2023-08-08T03:30:29;2.88;;;1.42;;
73428;SDS011;61643;49.564;17.412;2023-08-08T03:32:55;2.88;;;1.40;;
73428;SDS011;61643;49.564;17.412;2023-08-08T03:35:21;4.15;;;1.33;;
73428;SDS011;61643;49.564;17.412;2023-08-08T03:37:47;3.28;;;1.50;;
73428;SDS011;61643;49.564;17.412;2023-08-08T03:40:13;4.47;;;1.60;;
73428;SDS011;61643;49.564;17.412;2023-08-08T03:42:41;4.07;;;1.35;;
73428;SDS011;61643;49.564;17.412;2023-08-08T03:45:07;6.28;;;1.50;;
73428;SDS011;61643;49.564;17.412;2023-08-08T03:47:34;3.83;;;1.40;;
73428;SDS011;61643;49.564;17.412;2023-08-08T03:49:59;2.75;;;1.13;;
73428;SDS011;61643;49.564;17.412;2023-08-08T03:52:25;4.47;;;1.45;;
73428;SDS011;61643;49.564;17.412;2023-08-08T03:54:51;7.35;;;1.35;;
73428;SDS011;61643;49.564;17.412;2023-08-08T03:57:18;2.60;;;1.40;;
73428;SDS011;61643;49.564;17.412;2023-08-08T03:59:44;4.65;;;1.40;;
73428;SDS011;61643;49.564;17.412;2023-08-08T04:02:10;1.52;;;1.25;;
73428;SDS011;61643;49.564;17.412;2023-08-08T04:04:36;1.92;;;1.55;;
73428;SDS011;61643;49.564;17.412;2023-08-08T04:07:02;3.65;;;1.52;;
73428;SDS011;61643;49.564;17.412;2023-08-08T04:09:28;6.43;;;1.70;;
73428;SDS011;61643;49.564;17.412;2023-08-08T04:11:54;2.72;;;1.67;;
73428;SDS011;61643;49.564;17.412;2023-08-08T04:14:19;3.05;;;1.63;;
73428;SDS011;61643;49.564;17.412;2023-08-08T04:16:45;3.92;;;1.55;;
73428;SDS011;61643;49.564;17.412;2023-08-08T04:19:11;2.97;;;1.50;;
73428;SDS011;61643;49.564;17.412;2023-08-08T04:21:37;2.85;;;1.40;;
73428;SDS011;61643;49.564;17.412;2023-08-08T04:24:03;4.60;;;1.55;;
73428;SDS011;61643;49.564;17.412;2023-08-08T04:26:29;2.58;;;1.48;;
73428;SDS011;61643;49.564;17.412;2023-08-08T04:28:55;3.70;;;1.40;;
73428;SDS011;61643;49.564;17.412;2023-08-08T04:31:21;2.92;;;1.50;;
73428;SDS011;61643;49.564;17.412;2023-08-08T04:33:50;1.70;;;1.33;;
73428;SDS011;61643;49.564;17.412;2023-08-08T04:36:16;5.35;;;1.70;;
73428;SDS011;61643;49.564;17.412;2023-08-08T04:38:42;2.90;;;1.40;;
73428;SDS011;61643;49.564;17.412;2023-08-08T04:41:08;2.30;;;1.25;;
73428;SDS011;61643;49.564;17.412;2023-08-08T04:43:34;3.10;;;1.40;;
73428;SDS011;61643;49.564;17.412;2023-08-08T04:46:00;3.47;;;1.70;;
73428;SDS011;61643;49.564;17.412;2023-08-08T04:48:26;3.70;;;1.77;;
73428;SDS011;61643;49.564;17.412;2023-08-08T04:50:52;5.15;;;1.75;;
73428;SDS011;61643;49.564;17.412;2023-08-08T04:53:18;2.97;;;1.33;;
73428;SDS011;61643;49.564;17.412;2023-08-08T04:55:44;2.80;;;1.40;;
73428;SDS011;61643;49.564;17.412;2023-08-08T04:58:10;2.80;;;1.50;;
73428;SDS011;61643;49.564;17.412;2023-08-08T05:00:36;2.65;;;1.55;;
73428;SDS011;61643;49.564;17.412;2023-08-08T05:03:02;1.27;;;1.15;;
73428;SDS011;61643;49.564;17.412;2023-08-08T05:05:28;3.13;;;1.50;;
73428;SDS011;61643;49.564;17.412;2023-08-08T05:07:54;4.00;;;1.60;;
73428;SDS011;61643;49.564;17.412;2023-08-08T05:10:19;3.85;;;1.50;;
73428;SDS011;61643;49.564;17.412;2023-08-08T05:12:45;2.80;;;1.70;;
73428;SDS011;61643;49.564;17.412;2023-08-08T05:15:11;3.35;;;1.30;;
73428;SDS011;61643;49.564;17.412;2023-08-08T05:17:37;4.68;;;1.95;;
73428;SDS011;61643;49.564;17.412;2023-08-08T05:20:04;2.08;;;1.33;;
73428;SDS011;61643;49.564;17.412;2023-08-08T05:22:30;2.38;;;1.50;;
73428;SDS011;61643;49.564;17.412;2023-08-08T05:24:56;3.10;;;1.67;;
73428;SDS011;61643;49.564;17.412;2023-08-08T05:27:22;3.38;;;1.55;;
73428;SDS011;61643;49.564;17.412;2023-08-08T05:29:48;2.72;;;1.35;;
73428;SDS011;61643;49.564;17.412;2023-08-08T05:32:14;3.38;;;1.30;;
73428;SDS011;61643;49.564;17.412;2023-08-08T05:34:40;4.43;;;1.52;;
73428;SDS011;61643;49.564;17.412;2023-08-08T05:37:06;3.60;;;1.52;;
73428;SDS011;61643;49.564;17.412;2023-08-08T05:39:33;3.22;;;1.50;;
73428;SDS011;61643;49.564;17.412;2023-08-08T05:41:59;6.95;;;1.92;;
73428;SDS011;61643;49.564;17.412;2023-08-08T05:44:25;4.43;;;1.45;;
73428;SDS011;61643;49.564;17.412;2023-08-08T05:46:51;3.22;;;1.60;;
73428;SDS011;61643;49.564;17.412;2023-08-08T05:49:17;2.58;;;1.27;;
73428;SDS011;61643;49.564;17.412;2023-08-08T05:51:43;4.30;;;1.50;;
73428;SDS011;61643;49.564;17.412;2023-08-08T05:54:09;3.22;;;1.63;;
73428;SDS011;61643;49.564;17.412;2023-08-08T05:56:37;7.45;;;1.77;;
73428;SDS011;61643;49.564;17.412;2023-08-08T05:59:03;3.20;;;1.55;;
73428;SDS011;61643;49.564;17.412;2023-08-08T06:01:30;2.13;;;1.40;;
73428;SDS011;61643;49.564;17.412;2023-08-08T06:03:57;4.53;;;1.20;;
73428;SDS011;61643;49.564;17.412;2023-08-08T06:06:25;3.40;;;1.30;;
73428;SDS011;61643;49.564;17.412;2023-08-08T06:08:51;2.65;;;1.30;;
73428;SDS011;61643;49.564;17.412;2023-08-08T06:11:18;3.03;;;1.55;;
73428;SDS011;61643;49.564;17.412;2023-08-08T06:13:44;2.47;;;1.30;;
73428;SDS011;61643;49.564;17.412;2023-08-08T06:16:09;5.93;;;1.75;;
73428;SDS011;61643;49.564;17.412;2023-08-08T06:18:37;2.67;;;1.30;;
73428;SDS011;61643;49.564;17.412;2023-08-08T06:21:03;2.50;;;1.50;;
73428;SDS011;61643;49.564;17.412;2023-08-08T06:23:29;3.67;;;1.65;;
73428;SDS011;61643;49.564;17.412;2023-08-08T06:25:55;3.40;;;2.00;;
73428;SDS011;61643;49.564;17.412;2023-08-08T06:28:21;2.88;;;1.33;;
73428;SDS011;61643;49.564;17.412;2023-08-08T06:30:47;2.15;;;1.40;;
73428;SDS011;61643;49.564;17.412;2023-08-08T06:33:12;2.80;;;1.40;;
73428;SDS011;61643;49.564;17.412;2023-08-08T06:35:38;2.85;;;1.50;;
73428;SDS011;61643;49.564;17.412;2023-08-08T06:38:04;3.10;;;1.25;;
73428;SDS011;61643;49.564;17.412;2023-08-08T06:40:30;2.65;;;1.40;;
73428;SDS011;61643;49.564;17.412;2023-08-08T06:42:57;4.10;;;1.27;;
73428;SDS011;61643;49.564;17.412;2023-08-08T06:45:23;4.82;;;1.50;;
73428;SDS011;61643;49.564;17.412;2023-08-08T06:47:49;3.80;;;1.52;;
73428;SDS011;61643;49.564;17.412;2023-08-08T06:50:15;3.17;;;1.27;;
73428;SDS011;61643;49.564;17.412;2023-08-08T06:52:42;4.03;;;1.50;;
73428;SDS011;61643;49.564;17.412;2023-08-08T06:55:08;4.30;;;1.23;;
73428;SDS011;61643;49.564;17.412;2023-08-08T06:57:34;5.38;;;1.50;;
73428;SDS011;61643;49.564;17.412;2023-08-08T07:00:01;1.90;;;1.42;;
73428;SDS011;61643;49.564;17.412;2023-08-08T07:02:30;2.95;;;1.40;;
73428;SDS011;61643;49.564;17.412;2023-08-08T07:04:56;4.25;;;1.35;;
73428;SDS011;61643;49.564;17.412;2023-08-08T07:07:22;3.15;;;1.52;;
73428;SDS011;61643;49.564;17.412;2023-08-08T07:09:48;3.83;;;1.70;;
73428;SDS011;61643;49.564;17.412;2023-08-08T07:12:14;5.32;;;1.50;;
73428;SDS011;61643;49.564;17.412;2023-08-08T07:14:40;2.72;;;1.27;;
73428;SDS011;61643;49.564;17.412;2023-08-08T07:17:06;2.58;;;1.60;;
73428;SDS011;61643;49.564;17.412;2023-08-08T07:19:32;3.85;;;1.42;;
73428;SDS011;61643;49.564;17.412;2023-08-08T07:21:58;2.88;;;1.50;;
73428;SDS011;61643;49.564;17.412;2023-08-08T07:24:24;3.42;;;1.40;;
73428;SDS011;61643;49.564;17.412;2023-08-08T07:26:55;5.88;;;1.63;;
73428;SDS011;61643;49.564;17.412;2023-08-08T07:29:21;8.60;;;2.78;;
73428;SDS011;61643;49.564;17.412;2023-08-08T07:31:47;4.53;;;1.63;;
73428;SDS011;61643;49.564;17.412;2023-08-08T07:34:13;4.13;;;1.42;;
73428;SDS011;61643;49.564;17.412;2023-08-08T07:36:39;2.90;;;1.27;;
73428;SDS011;61643;49.564;17.412;2023-08-08T07:39:05;2.88;;;1.33;;
73428;SDS011;61643;49.564;17.412;2023-08-08T07:41:31;2.30;;;1.25;;
73428;SDS011;61643;49.564;17.412;2023-08-08T07:43:57;2.05;;;1.30;;
73428;SDS011;61643;49.564;17.412;2023-08-08T07:46:23;4.53;;;1.45;;
73428;SDS011;61643;49.564;17.412;2023-08-08T07:48:49;6.00;;;1.63;;
73428;SDS011;61643;49.564;17.412;2023-08-08T07:51:15;3.03;;;1.10;;
73428;SDS011;61643;49.564;17.412;2023-08-08T07:53:41;3.38;;;0.93;;
73428;SDS011;61643;49.564;17.412;2023-08-08T07:56:07;2.05;;;1.20;;
73428;SDS011;61643;49.564;17.412;2023-08-08T07:58:33;2.65;;;1.13;;
73428;SDS011;61643;49.564;17.412;2023-08-08T08:00:59;2.72;;;1.17;;
73428;SDS011;61643;49.564;17.412;2023-08-08T08:03:28;1.52;;;1.00;;
73428;SDS011;61643;49.564;17.412;2023-08-08T08:05:54;3.50;;;1.15;;
73428;SDS011;61643;49.564;17.412;2023-08-08T08:08:20;1.60;;;1.23;;
73428;SDS011;61643;49.564;17.412;2023-08-08T08:10:47;2.33;;;1.13;;
73428;SDS011;61643;49.564;17.412;2023-08-08T08:13:14;3.83;;;1.40;;
73428;SDS011;61643;49.564;17.412;2023-08-08T08:15:40;1.60;;;1.00;;
73428;SDS011;61643;49.564;17.412;2023-08-08T08:18:06;1.67;;;1.10;;
73428;SDS011;61643;49.564;17.412;2023-08-08T08:20:32;1.65;;;1.10;;
73428;SDS011;61643;49.564;17.412;2023-08-08T08:22:58;2.70;;;1.20;;
73428;SDS011;61643;49.564;17.412;2023-08-08T08:25:24;3.45;;;1.45;;
73428;SDS011;61643;49.564;17.412;2023-08-08T08:27:50;2.42;;;1.23;;
73428;SDS011;61643;49.564;17.412;2023-08-08T08:30:16;2.70;;;1.15;;
73428;SDS011;61643;49.564;17.412;2023-08-08T08:32:42;2.75;;;1.48;;
73428;SDS011;61643;49.564;17.412;2023-08-08T08:35:08;5.95;;;1.52;;
73428;SDS011;61643;49.564;17.412;2023-08-08T08:37:34;4.00;;;1.10;;
73428;SDS011;61643;49.564;17.412;2023-08-08T08:40:00;3.83;;;1.40;;
73428;SDS011;61643;49.564;17.412;2023-08-08T08:42:26;2.38;;;1.30;;
73428;SDS011;61643;49.564;17.412;2023-08-08T08:44:57;3.03;;;1.25;;
73428;SDS011;61643;49.564;17.412;2023-08-08T08:47:24;2.45;;;1.30;;
73428;SDS011;61643;49.564;17.412;2023-08-08T08:49:54;10.20;;;1.65;;
73428;SDS011;61643;49.564;17.412;2023-08-08T08:52:21;1.40;;;1.30;;
73428;SDS011;61643;49.564;17.412;2023-08-08T08:54:48;3.83;;;1.65;;
73428;SDS011;61643;49.564;17.412;2023-08-08T08:57:15;3.17;;;1.40;;
73428;SDS011;61643;49.564;17.412;2023-08-08T08:59:41;4.47;;;1.42;;
73428;SDS011;61643;49.564;17.412;2023-08-08T09:02:07;3.75;;;1.60;;
73428;SDS011;61643;49.564;17.412;2023-08-08T09:04:35;4.45;;;1.40;;
73428;SDS011;61643;49.564;17.412;2023-08-08T09:07:02;4.75;;;1.02;;
73428;SDS011;61643;49.564;17.412;2023-08-08T09:09:32;1.88;;;1.42;;
73428;SDS011;61643;49.564;17.412;2023-08-08T09:11:58;1.80;;;1.05;;
73428;SDS011;61643;49.564;17.412;2023-08-08T09:14:25;5.43;;;1.40;;
73428;SDS011;61643;49.564;17.412;2023-08-08T09:16:52;2.70;;;1.00;;
73428;SDS011;61643;49.564;17.412;2023-08-08T09:19:19;2.95;;;1.00;;
73428;SDS011;61643;49.564;17.412;2023-08-08T09:21:46;2.03;;;1.10;;
73428;SDS011;61643;49.564;17.412;2023-08-08T09:24:12;1.83;;;1.30;;
73428;SDS011;61643;49.564;17.412;2023-08-08T09:26:42;2.05;;;1.30;;
73428;SDS011;61643;49.564;17.412;2023-08-08T09:29:08;2.45;;;1.10;;
73428;SDS011;61643;49.564;17.412;2023-08-08T09:31:36;1.70;;;1.15;;
73428;SDS011;61643;49.564;17.412;2023-08-08T09:34:03;1.20;;;1.00;;
73428;SDS011;61643;49.564;17.412;2023-08-08T09:36:30;2.38;;;1.00;;
73428;SDS011;61643;49.564;17.412;2023-08-08T09:38:56;1.50;;;1.00;;
73428;SDS011;61643;49.564;17.412;2023-08-08T09:41:22;5.28;;;1.15;;
73428;SDS011;61643;49.564;17.412;2023-08-08T09:43:49;2.33;;;1.30;;
73428;SDS011;61643;49.564;17.412;2023-08-08T09:46:20;1.10;;;0.90;;
73428;SDS011;61643;49.564;17.412;2023-08-08T09:48:47;2.00;;;1.00;;
73428;SDS011;61643;49.564;17.412;2023-08-08T09:51:14;2.47;;;1.10;;
73428;SDS011;61643;49.564;17.412;2023-08-08T09:53:41;2.42;;;1.08;;
73428;SDS011;61643;49.564;17.412;2023-08-08T09:56:07;1.52;;;1.00;;
73428;SDS011;61643;49.564;17.412;2023-08-08T09:58:33;1.65;;;1.10;;
73428;SDS011;61643;49.564;17.412;2023-08-08T10:00:59;1.48;;;1.08;;
73428;SDS011;61643;49.564;17.412;2023-08-08T10:03:26;2.40;;;1.10;;
73428;SDS011;61643;49.564;17.412;2023-08-08T10:05:53;2.03;;;1.40;;
73428;SDS011;61643;49.564;17.412;2023-08-08T10:08:19;1.70;;;1.40;;
73428;SDS011;61643;49.564;17.412;2023-08-08T10:10:46;1.88;;;1.00;;
73428;SDS011;61643;49.564;17.412;2023-08-08T10:13:23;3.30;;;1.38;;
73428;SDS011;61643;49.564;17.412;2023-08-08T10:15:51;1.92;;;1.20;;
73428;SDS011;61643;49.564;17.412;2023-08-08T10:18:21;1.35;;;1.15;;
73428;SDS011;61643;49.564;17.412;2023-08-08T10:20:48;2.22;;;1.25;;
73428;SDS011;61643;49.564;17.412;2023-08-08T10:23:18;3.35;;;1.23;;
73428;SDS011;61643;49.564;17.412;2023-08-08T10:25:45;1.70;;;1.05;;
73428;SDS011;61643;49.564;17.412;2023-08-08T10:28:13;2.63;;;1.13;;
73428;SDS011;61643;49.564;17.412;2023-08-08T10:30:47;1.27;;;1.10;;
73428;SDS011;61643;49.564;17.412;2023-08-08T10:33:17;1.92;;;1.10;;
73428;SDS011;61643;49.564;17.412;2023-08-08T10:38:26;1.77;;;1.23;;
73428;SDS011;61643;49.564;17.412;2023-08-08T10:40:59;4.40;;;1.25;;
73428;SDS011;61643;49.564;17.412;2023-08-08T10:43:28;1.85;;;1.20;;
73428;SDS011;61643;49.564;17.412;2023-08-08T10:45:59;2.25;;;1.35;;
73428;SDS011;61643;49.564;17.412;2023-08-08T10:48:26;1.85;;;1.35;;
73428;SDS011;61643;49.564;17.412;2023-08-08T10:50:59;4.03;;;1.40;;
73428;SDS011;61643;49.564;17.412;2023-08-08T10:53:26;1.95;;;1.15;;
73428;SDS011;61643;49.564;17.412;2023-08-08T10:55:59;1.65;;;1.35;;
73428;SDS011;61643;49.564;17.412;2023-08-08T10:58:37;1.42;;;1.30;;
73428;SDS011;61643;49.564;17.412;2023-08-08T11:01:05;6.63;;;1.50;;
73428;SDS011;61643;49.564;17.412;2023-08-08T11:03:34;4.05;;;1.10;;
73428;SDS011;61643;49.564;17.412;2023-08-08T11:06:03;3.10;;;1.30;;
73428;SDS011;61643;49.564;17.412;2023-08-08T11:08:30;3.03;;;1.27;;
73428;SDS011;61643;49.564;17.412;2023-08-08T11:13:22;2.03;;;1.20;;
73428;SDS011;61643;49.564;17.412;2023-08-08T11:15:48;2.88;;;1.58;;
73428;SDS011;61643;49.564;17.412;2023-08-08T11:18:14;3.63;;;1.30;;
73428;SDS011;61643;49.564;17.412;2023-08-08T11:20:40;6.88;;;1.15;;
73428;SDS011;61643;49.564;17.412;2023-08-08T11:23:06;5.07;;;1.35;;
73428;SDS011;61643;49.564;17.412;2023-08-08T11:25:36;2.53;;;1.40;;
73428;SDS011;61643;49.564;17.412;2023-08-08T11:28:02;1.90;;;1.20;;
73428;SDS011;61643;49.564;17.412;2023-08-08T11:30:29;2.00;;;1.40;;
73428;SDS011;61643;49.564;17.412;2023-08-08T11:32:59;2.65;;;1.50;;
73428;SDS011;61643;49.564;17.412;2023-08-08T11:35:25;1.60;;;1.10;;
73428;SDS011;61643;49.564;17.412;2023-08-08T11:37:53;3.95;;;1.30;;
73428;SDS011;61643;49.564;17.412;2023-08-08T11:42:47;2.05;;;1.33;;
73428;SDS011;61643;49.564;17.412;2023-08-08T11:45:16;2.72;;;1.40;;
73428;SDS011;61643;49.564;17.412;2023-08-08T11:47:42;2.55;;;1.20;;
73428;SDS011;61643;49.564;17.412;2023-08-08T11:50:09;3.05;;;1.35;;
73428;SDS011;61643;49.564;17.412;2023-08-08T11:55:06;1.63;;;1.20;;
73428;SDS011;61643;49.564;17.412;2023-08-08T11:57:37;2.15;;;1.20;;
73428;SDS011;61643;49.564;17.412;2023-08-08T12:00:07;1.50;;;1.17;;
73428;SDS011;61643;49.564;17.412;2023-08-08T12:02:34;2.25;;;1.55;;
73428;SDS011;61643;49.564;17.412;2023-08-08T12:05:07;1.25;;;1.10;;
73428;SDS011;61643;49.564;17.412;2023-08-08T12:07:35;1.58;;;1.27;;
73428;SDS011;61643;49.564;17.412;2023-08-08T12:10:03;1.63;;;1.10;;
73428;SDS011;61643;49.564;17.412;2023-08-08T12:12:33;1.67;;;1.30;;
73428;SDS011;61643;49.564;17.412;2023-08-08T12:15:05;2.25;;;1.38;;
73428;SDS011;61643;49.564;17.412;2023-08-08T12:17:32;3.03;;;1.55;;
73428;SDS011;61643;49.564;17.412;2023-08-08T12:20:03;1.98;;;1.55;;
73428;SDS011;61643;49.564;17.412;2023-08-08T12:22:31;4.55;;;1.80;;
73428;SDS011;61643;49.564;17.412;2023-08-08T12:24:57;4.15;;;1.92;;
73428;SDS011;61643;49.564;17.412;2023-08-08T12:27:23;2.70;;;1.77;;
73428;SDS011;61643;49.564;17.412;2023-08-08T12:29:49;1.98;;;1.52;;
73428;SDS011;61643;49.564;17.412;2023-08-08T12:32:15;2.40;;;1.67;;
73428;SDS011;61643;49.564;17.412;2023-08-08T12:34:41;3.05;;;1.80;;
73428;SDS011;61643;49.564;17.412;2023-08-08T12:37:07;4.13;;;1.77;;
73428;SDS011;61643;49.564;17.412;2023-08-08T12:39:33;2.15;;;1.45;;
73428;SDS011;61643;49.564;17.412;2023-08-08T12:41:59;1.80;;;1.60;;
73428;SDS011;61643;49.564;17.412;2023-08-08T12:44:25;3.20;;;1.80;;
73428;SDS011;61643;49.564;17.412;2023-08-08T12:46:51;2.42;;;1.67;;
73428;SDS011;61643;49.564;17.412;2023-08-08T12:49:17;2.75;;;1.90;;
73428;SDS011;61643;49.564;17.412;2023-08-08T12:51:43;2.05;;;1.80;;
73428;SDS011;61643;49.564;17.412;2023-08-08T12:54:09;2.22;;;1.70;;
73428;SDS011;61643;49.564;17.412;2023-08-08T12:56:35;1.60;;;1.48;;
73428;SDS011;61643;49.564;17.412;2023-08-08T12:59:01;3.08;;;1.63;;
73428;SDS011;61643;49.564;17.412;2023-08-08T13:01:28;3.00;;;1.63;;
73428;SDS011;61643;49.564;17.412;2023-08-08T13:03:54;3.60;;;1.67;;
73428;SDS011;61643;49.564;17.412;2023-08-08T13:06:20;4.40;;;1.98;;
73428;SDS011;61643;49.564;17.412;2023-08-08T13:08:46;4.00;;;2.10;;
73428;SDS011;61643;49.564;17.412;2023-08-08T13:11:12;2.53;;;1.60;;
73428;SDS011;61643;49.564;17.412;2023-08-08T13:13:38;2.80;;;1.50;;
73428;SDS011;61643;49.564;17.412;2023-08-08T13:16:04;1.75;;;1.60;;
73428;SDS011;61643;49.564;17.412;2023-08-08T13:18:30;1.77;;;1.65;;
73428;SDS011;61643;49.564;17.412;2023-08-08T13:20:56;2.20;;;1.30;;
73428;SDS011;61643;49.564;17.412;2023-08-08T13:23:22;1.45;;;1.27;;
73428;SDS011;61643;49.564;17.412;2023-08-08T13:25:48;1.60;;;1.50;;
73428;SDS011;61643;49.564;17.412;2023-08-08T13:28:14;1.20;;;1.10;;
73428;SDS011;61643;49.564;17.412;2023-08-08T13:30:40;2.13;;;1.40;;
73428;SDS011;61643;49.564;17.412;2023-08-08T13:33:08;1.67;;;1.40;;
73428;SDS011;61643;49.564;17.412;2023-08-08T13:35:34;2.17;;;1.30;;
73428;SDS011;61643;49.564;17.412;2023-08-08T13:38:00;1.75;;;1.25;;
73428;SDS011;61643;49.564;17.412;2023-08-08T13:40:26;2.80;;;1.20;;
73428;SDS011;61643;49.564;17.412;2023-08-08T13:42:52;1.35;;;1.20;;
73428;SDS011;61643;49.564;17.412;2023-08-08T13:45:19;1.73;;;1.30;;
73428;SDS011;61643;49.564;17.412;2023-08-08T13:47:48;1.33;;;1.23;;
73428;SDS011;61643;49.564;17.412;2023-08-08T13:50:15;2.05;;;1.30;;
73428;SDS011;61643;49.564;17.412;2023-08-08T13:52:41;1.80;;;1.27;;
73428;SDS011;61643;49.564;17.412;2023-08-08T13:55:08;1.13;;;0.90;;
73428;SDS011;61643;49.564;17.412;2023-08-08T13:57:34;1.13;;;1.00;;
73428;SDS011;61643;49.564;17.412;2023-08-08T14:00:01;1.30;;;1.10;;
73428;SDS011;61643;49.564;17.412;2023-08-08T14:04:55;1.40;;;1.15;;
73428;SDS011;61643;49.564;17.412;2023-08-08T14:07:21;1.67;;;0.90;;
73428;SDS011;61643;49.564;17.412;2023-08-08T14:09:47;2.20;;;0.93;;
73428;SDS011;61643;49.564;17.412;2023-08-08T14:12:13;2.05;;;0.90;;
73428;SDS011;61643;49.564;17.412;2023-08-08T14:14:39;2.03;;;1.20;;
73428;SDS011;61643;49.564;17.412;2023-08-08T14:17:05;1.55;;;1.00;;
73428;SDS011;61643;49.564;17.412;2023-08-08T14:19:31;1.27;;;0.95;;
73428;SDS011;61643;49.564;17.412;2023-08-08T14:21:57;1.38;;;0.90;;
73428;SDS011;61643;49.564;17.412;2023-08-08T14:24:23;1.38;;;0.98;;
73428;SDS011;61643;49.564;17.412;2023-08-08T14:26:49;0.98;;;0.90;;
73428;SDS011;61643;49.564;17.412;2023-08-08T14:29:15;1.55;;;0.75;;
73428;SDS011;61643;49.564;17.412;2023-08-08T14:31:41;1.30;;;1.00;;
73428;SDS011;61643;49.564;17.412;2023-08-08T14:34:07;0.93;;;0.80;;
73428;SDS011;61643;49.564;17.412;2023-08-08T14:36:33;1.42;;;1.10;;
73428;SDS011;61643;49.564;17.412;2023-08-08T14:38:59;2.72;;;1.20;;
73428;SDS011;61643;49.564;17.412;2023-08-08T14:41:25;1.75;;;0.90;;
73428;SDS011;61643;49.564;17.412;2023-08-08T14:43:51;1.13;;;0.90;;
73428;SDS011;61643;49.564;17.412;2023-08-08T14:46:16;2.35;;;1.00;;